sensor_id;sensor_type;location;lat;lon;timestamp;P1;durP1;ratioP1;P2;durP2;ratioP2
57087;SDS011;42965;52.846;6.614;2024-02-23T00:00:04;2.88;;;1.02;;
57087;SDS011;42965;52.846;6.614;2024-02-23T00:02:33;3.88;;;0.93;;
57087;SDS011;42965;52.846;6.614;2024-02-23T00:04:59;5.78;;;0.70;;
57087;SDS011;42965;52.846;6.614;2024-02-23T00:07:26;3.45;;;1.20;;
57087;SDS011;42965;52.846;6.614;2024-02-23T00:09:52;5.18;;;0.95;;
57087;SDS011;42965;52.846;6.614;2024-02-23T00:12:18;6.85;;;1.02;;
57087;SDS011;42965;52.846;6.614;2024-02-23T00:14:44;4.68;;;0.70;;
57087;SDS011;42965;52.846;6.614;2024-02-23T00:17:11;4.00;;;1.02;;
57087;SDS011;42965;52.846;6.614;2024-02-23T00:19:38;3.88;;;0.90;;
57087;SDS011;42965;52.846;6.614;2024-02-23T00:22:10;5.38;;;1.00;;
57087;SDS011;42965;52.846;6.614;2024-02-23T00:24:36;3.22;;;0.60;;
57087;SDS011;42965;52.846;6.614;2024-02-23T00:27:03;2.83;;;0.77;;
57087;SDS011;42965;52.846;6.614;2024-02-23T00:29:30;3.05;;;0.70;;
57087;SDS011;42965;52.846;6.614;2024-02-23T00:31:57;2.58;;;0.60;;
57087;SDS011;42965;52.846;6.614;2024-02-23T00:34:24;1.00;;;0.50;;
57087;SDS011;42965;52.846;6.614;2024-02-23T00:36:51;3.22;;;0.60;;
57087;SDS011;42965;52.846;6.614;2024-02-23T00:39:19;2.33;;;0.43;;
57087;SDS011;42965;52.846;6.614;2024-02-23T00:41:46;2.38;;;0.60;;
57087;SDS011;42965;52.846;6.614;2024-02-23T00:44:13;0.38;;;0.30;;
57087;SDS011;42965;52.846;6.614;2024-02-23T00:46:40;1.05;;;0.55;;
57087;SDS011;42965;52.846;6.614;2024-02-23T00:49:07;0.98;;;0.50;;
57087;SDS011;42965;52.846;6.614;2024-02-23T00:51:34;1.08;;;0.50;;
57087;SDS011;42965;52.846;6.614;2024-02-23T00:54:01;0.75;;;0.40;;
57087;SDS011;42965;52.846;6.614;2024-02-23T00:56:28;0.57;;;0.40;;
57087;SDS011;42965;52.846;6.614;2024-02-23T00:58:55;2.70;;;0.55;;
57087;SDS011;42965;52.846;6.614;2024-02-23T01:01:24;0.47;;;0.38;;
57087;SDS011;42965;52.846;6.614;2024-02-23T01:03:53;0.60;;;0.60;;
57087;SDS011;42965;52.846;6.614;2024-02-23T01:06:19;2.20;;;0.60;;
57087;SDS011;42965;52.846;6.614;2024-02-23T01:08:46;1.75;;;0.80;;
57087;SDS011;42965;52.846;6.614;2024-02-23T01:11:12;3.17;;;0.85;;
57087;SDS011;42965;52.846;6.614;2024-02-23T01:13:39;2.13;;;0.85;;
57087;SDS011;42965;52.846;6.614;2024-02-23T01:16:05;4.25;;;0.90;;
57087;SDS011;42965;52.846;6.614;2024-02-23T01:18:31;3.17;;;0.80;;
57087;SDS011;42965;52.846;6.614;2024-02-23T01:20:58;3.30;;;1.15;;
57087;SDS011;42965;52.846;6.614;2024-02-23T01:23:24;3.28;;;1.52;;
57087;SDS011;42965;52.846;6.614;2024-02-23T01:25:50;3.10;;;1.70;;
57087;SDS011;42965;52.846;6.614;2024-02-23T01:28:16;4.15;;;2.20;;
57087;SDS011;42965;52.846;6.614;2024-02-23T01:30:42;6.75;;;3.55;;
57087;SDS011;42965;52.846;6.614;2024-02-23T01:33:08;8.02;;;3.08;;
57087;SDS011;42965;52.846;6.614;2024-02-23T01:35:35;7.35;;;2.40;;
57087;SDS011;42965;52.846;6.614;2024-02-23T01:38:02;6.50;;;2.40;;
57087;SDS011;42965;52.846;6.614;2024-02-23T01:40:28;8.95;;;1.80;;
57087;SDS011;42965;52.846;6.614;2024-02-23T01:43:00;4.93;;;1.83;;
57087;SDS011;42965;52.846;6.614;2024-02-23T01:45:32;6.15;;;1.77;;
57087;SDS011;42965;52.846;6.614;2024-02-23T01:47:59;7.10;;;1.75;;
57087;SDS011;42965;52.846;6.614;2024-02-23T01:50:26;11.75;;;2.45;;
57087;SDS011;42965;52.846;6.614;2024-02-23T01:52:53;5.13;;;1.92;;
57087;SDS011;42965;52.846;6.614;2024-02-23T01:55:22;4.32;;;1.90;;
57087;SDS011;42965;52.846;6.614;2024-02-23T01:57:49;10.50;;;2.67;;
57087;SDS011;42965;52.846;6.614;2024-02-23T02:00:16;11.25;;;2.20;;
57087;SDS011;42965;52.846;6.614;2024-02-23T02:02:50;8.18;;;2.53;;
57087;SDS011;42965;52.846;6.614;2024-02-23T02:05:18;12.95;;;3.10;;
57087;SDS011;42965;52.846;6.614;2024-02-23T02:07:45;6.28;;;2.40;;
57087;SDS011;42965;52.846;6.614;2024-02-23T02:10:16;10.53;;;2.43;;
57087;SDS011;42965;52.846;6.614;2024-02-23T02:12:44;10.48;;;2.58;;
57087;SDS011;42965;52.846;6.614;2024-02-23T02:15:11;12.57;;;2.72;;
57087;SDS011;42965;52.846;6.614;2024-02-23T02:17:37;9.50;;;2.60;;
57087;SDS011;42965;52.846;6.614;2024-02-23T02:20:04;13.48;;;3.00;;
57087;SDS011;42965;52.846;6.614;2024-02-23T02:22:37;13.48;;;3.13;;
57087;SDS011;42965;52.846;6.614;2024-02-23T02:25:03;12.93;;;3.00;;
57087;SDS011;42965;52.846;6.614;2024-02-23T02:27:30;8.98;;;2.67;;
57087;SDS011;42965;52.846;6.614;2024-02-23T02:29:57;9.98;;;3.20;;
57087;SDS011;42965;52.846;6.614;2024-02-23T02:32:24;9.50;;;3.10;;
57087;SDS011;42965;52.846;6.614;2024-02-23T02:34:50;14.18;;;3.28;;
57087;SDS011;42965;52.846;6.614;2024-02-23T02:37:16;9.80;;;2.78;;
57087;SDS011;42965;52.846;6.614;2024-02-23T02:39:42;11.55;;;2.63;;
57087;SDS011;42965;52.846;6.614;2024-02-23T02:42:09;14.75;;;2.45;;
57087;SDS011;42965;52.846;6.614;2024-02-23T02:44:35;11.02;;;2.97;;
57087;SDS011;42965;52.846;6.614;2024-02-23T02:47:01;10.95;;;2.97;;
57087;SDS011;42965;52.846;6.614;2024-02-23T02:49:28;11.52;;;3.03;;
57087;SDS011;42965;52.846;6.614;2024-02-23T02:51:54;10.40;;;2.47;;
57087;SDS011;42965;52.846;6.614;2024-02-23T02:54:20;12.27;;;2.88;;
57087;SDS011;42965;52.846;6.614;2024-02-23T02:56:49;14.93;;;2.95;;
57087;SDS011;42965;52.846;6.614;2024-02-23T02:59:20;12.57;;;2.58;;
57087;SDS011;42965;52.846;6.614;2024-02-23T03:01:46;14.63;;;2.75;;
57087;SDS011;42965;52.846;6.614;2024-02-23T03:04:15;10.15;;;2.70;;
57087;SDS011;42965;52.846;6.614;2024-02-23T03:06:41;11.07;;;3.22;;
57087;SDS011;42965;52.846;6.614;2024-02-23T03:09:08;15.93;;;3.42;;
57087;SDS011;42965;52.846;6.614;2024-02-23T03:11:35;12.85;;;3.33;;
57087;SDS011;42965;52.846;6.614;2024-02-23T03:14:02;9.45;;;2.83;;
57087;SDS011;42965;52.846;6.614;2024-02-23T03:16:31;12.23;;;2.90;;
57087;SDS011;42965;52.846;6.614;2024-02-23T03:19:01;12.18;;;2.90;;
57087;SDS011;42965;52.846;6.614;2024-02-23T03:21:31;13.32;;;2.67;;
57087;SDS011;42965;52.846;6.614;2024-02-23T03:23:58;11.50;;;2.58;;
57087;SDS011;42965;52.846;6.614;2024-02-23T03:26:24;7.63;;;2.35;;
57087;SDS011;42965;52.846;6.614;2024-02-23T03:28:50;13.23;;;2.75;;
57087;SDS011;42965;52.846;6.614;2024-02-23T03:31:16;13.65;;;2.72;;
57087;SDS011;42965;52.846;6.614;2024-02-23T03:33:43;11.15;;;2.88;;
57087;SDS011;42965;52.846;6.614;2024-02-23T03:36:09;8.45;;;2.65;;
57087;SDS011;42965;52.846;6.614;2024-02-23T03:38:35;8.23;;;2.50;;
57087;SDS011;42965;52.846;6.614;2024-02-23T03:41:01;13.13;;;2.47;;
57087;SDS011;42965;52.846;6.614;2024-02-23T03:43:28;8.88;;;2.42;;
57087;SDS011;42965;52.846;6.614;2024-02-23T03:45:57;9.95;;;2.55;;
57087;SDS011;42965;52.846;6.614;2024-02-23T03:48:23;6.55;;;2.20;;
57087;SDS011;42965;52.846;6.614;2024-02-23T03:50:49;11.57;;;2.38;;
57087;SDS011;42965;52.846;6.614;2024-02-23T03:53:16;13.43;;;2.38;;
57087;SDS011;42965;52.846;6.614;2024-02-23T03:55:42;7.97;;;1.67;;
57087;SDS011;42965;52.846;6.614;2024-02-23T03:58:08;10.93;;;2.33;;
57087;SDS011;42965;52.846;6.614;2024-02-23T04:00:34;8.98;;;2.03;;
57087;SDS011;42965;52.846;6.614;2024-02-23T04:03:00;7.93;;;1.73;;
57087;SDS011;42965;52.846;6.614;2024-02-23T04:05:27;7.35;;;1.98;;
57087;SDS011;42965;52.846;6.614;2024-02-23T04:07:53;5.45;;;1.60;;
57087;SDS011;42965;52.846;6.614;2024-02-23T04:10:19;9.55;;;2.40;;
57087;SDS011;42965;52.846;6.614;2024-02-23T04:12:48;7.80;;;1.58;;
57087;SDS011;42965;52.846;6.614;2024-02-23T04:15:16;6.65;;;1.77;;
57087;SDS011;42965;52.846;6.614;2024-02-23T04:17:48;7.75;;;1.73;;
57087;SDS011;42965;52.846;6.614;2024-02-23T04:20:14;6.70;;;1.63;;
57087;SDS011;42965;52.846;6.614;2024-02-23T04:22:41;10.55;;;1.48;;
57087;SDS011;42965;52.846;6.614;2024-02-23T04:25:08;5.85;;;2.10;;
57087;SDS011;42965;52.846;6.614;2024-02-23T04:27:41;8.02;;;1.77;;
57087;SDS011;42965;52.846;6.614;2024-02-23T04:30:11;12.25;;;2.45;;
57087;SDS011;42965;52.846;6.614;2024-02-23T04:32:41;7.60;;;2.42;;
57087;SDS011;42965;52.846;6.614;2024-02-23T04:35:08;7.43;;;2.13;;
57087;SDS011;42965;52.846;6.614;2024-02-23T04:37:36;7.82;;;2.67;;
57087;SDS011;42965;52.846;6.614;2024-02-23T04:40:03;4.80;;;2.33;;
57087;SDS011;42965;52.846;6.614;2024-02-23T04:42:33;9.63;;;3.30;;
57087;SDS011;42965;52.846;6.614;2024-02-23T04:45:00;7.30;;;2.78;;
57087;SDS011;42965;52.846;6.614;2024-02-23T04:47:27;9.25;;;3.45;;
57087;SDS011;42965;52.846;6.614;2024-02-23T04:49:54;12.10;;;3.92;;
57087;SDS011;42965;52.846;6.614;2024-02-23T04:52:21;15.35;;;5.00;;
57087;SDS011;42965;52.846;6.614;2024-02-23T04:54:47;7.68;;;4.68;;
57087;SDS011;42965;52.846;6.614;2024-02-23T04:57:14;10.35;;;4.97;;
57087;SDS011;42965;52.846;6.614;2024-02-23T04:59:40;9.88;;;5.45;;
57087;SDS011;42965;52.846;6.614;2024-02-23T05:02:08;12.73;;;6.20;;
57087;SDS011;42965;52.846;6.614;2024-02-23T05:04:34;11.68;;;6.88;;
57087;SDS011;42965;52.846;6.614;2024-02-23T05:07:01;15.98;;;7.68;;
57087;SDS011;42965;52.846;6.614;2024-02-23T05:09:27;19.48;;;8.15;;
57087;SDS011;42965;52.846;6.614;2024-02-23T05:11:55;13.27;;;8.23;;
57087;SDS011;42965;52.846;6.614;2024-02-23T05:14:21;13.10;;;7.97;;
57087;SDS011;42965;52.846;6.614;2024-02-23T05:16:53;13.77;;;8.00;;
57087;SDS011;42965;52.846;6.614;2024-02-23T05:19:19;11.20;;;7.45;;
57087;SDS011;42965;52.846;6.614;2024-02-23T05:21:46;12.30;;;7.18;;
57087;SDS011;42965;52.846;6.614;2024-02-23T05:24:12;14.50;;;7.75;;
57087;SDS011;42965;52.846;6.614;2024-02-23T05:26:39;11.95;;;6.63;;
57087;SDS011;42965;52.846;6.614;2024-02-23T05:29:10;10.38;;;6.95;;
57087;SDS011;42965;52.846;6.614;2024-02-23T05:31:45;11.32;;;7.25;;
57087;SDS011;42965;52.846;6.614;2024-02-23T05:34:13;13.45;;;7.43;;
57087;SDS011;42965;52.846;6.614;2024-02-23T05:36:41;14.75;;;6.63;;
57087;SDS011;42965;52.846;6.614;2024-02-23T05:39:08;16.23;;;7.78;;
57087;SDS011;42965;52.846;6.614;2024-02-23T05:41:35;15.13;;;7.53;;
57087;SDS011;42965;52.846;6.614;2024-02-23T05:44:12;19.17;;;8.23;;
57087;SDS011;42965;52.846;6.614;2024-02-23T05:46:39;13.82;;;7.22;;
57087;SDS011;42965;52.846;6.614;2024-02-23T05:49:05;16.27;;;7.50;;
57087;SDS011;42965;52.846;6.614;2024-02-23T05:51:31;14.00;;;7.55;;
57087;SDS011;42965;52.846;6.614;2024-02-23T05:53:58;13.85;;;6.70;;
57087;SDS011;42965;52.846;6.614;2024-02-23T05:56:26;13.07;;;6.82;;
57087;SDS011;42965;52.846;6.614;2024-02-23T05:58:53;11.85;;;6.70;;
57087;SDS011;42965;52.846;6.614;2024-02-23T06:01:20;17.77;;;7.63;;
57087;SDS011;42965;52.846;6.614;2024-02-23T06:03:47;14.05;;;6.95;;
57087;SDS011;42965;52.846;6.614;2024-02-23T06:06:14;12.80;;;7.32;;
57087;SDS011;42965;52.846;6.614;2024-02-23T06:08:41;14.85;;;7.95;;
57087;SDS011;42965;52.846;6.614;2024-02-23T06:11:13;12.05;;;7.28;;
57087;SDS011;42965;52.846;6.614;2024-02-23T06:16:12;11.98;;;6.57;;
57087;SDS011;42965;52.846;6.614;2024-02-23T06:18:39;15.73;;;6.68;;
57087;SDS011;42965;52.846;6.614;2024-02-23T06:21:17;12.70;;;7.30;;
57087;SDS011;42965;52.846;6.614;2024-02-23T06:23:44;13.63;;;7.10;;
57087;SDS011;42965;52.846;6.614;2024-02-23T06:26:11;11.65;;;6.20;;
57087;SDS011;42965;52.846;6.614;2024-02-23T06:28:41;15.35;;;7.07;;
57087;SDS011;42965;52.846;6.614;2024-02-23T06:31:16;16.02;;;7.22;;
57087;SDS011;42965;52.846;6.614;2024-02-23T06:33:43;13.98;;;7.63;;
57087;SDS011;42965;52.846;6.614;2024-02-23T06:36:20;15.20;;;7.78;;
57087;SDS011;42965;52.846;6.614;2024-02-23T06:38:47;15.95;;;7.03;;
57087;SDS011;42965;52.846;6.614;2024-02-23T06:41:14;11.95;;;6.55;;
57087;SDS011;42965;52.846;6.614;2024-02-23T06:43:41;14.75;;;6.47;;
57087;SDS011;42965;52.846;6.614;2024-02-23T06:46:08;15.10;;;7.10;;
57087;SDS011;42965;52.846;6.614;2024-02-23T06:48:36;15.30;;;6.97;;
57087;SDS011;42965;52.846;6.614;2024-02-23T06:51:04;13.95;;;6.72;;
57087;SDS011;42965;52.846;6.614;2024-02-23T06:53:31;12.52;;;6.97;;
57087;SDS011;42965;52.846;6.614;2024-02-23T06:56:01;9.38;;;6.95;;
57087;SDS011;42965;52.846;6.614;2024-02-23T06:58:29;12.43;;;7.13;;
57087;SDS011;42965;52.846;6.614;2024-02-23T07:00:56;14.75;;;6.78;;
57087;SDS011;42965;52.846;6.614;2024-02-23T07:03:24;16.52;;;7.50;;
57087;SDS011;42965;52.846;6.614;2024-02-23T07:05:52;11.43;;;7.22;;
57087;SDS011;42965;52.846;6.614;2024-02-23T07:08:19;16.58;;;6.80;;
57087;SDS011;42965;52.846;6.614;2024-02-23T07:10:46;14.50;;;6.28;;
57087;SDS011;42965;52.846;6.614;2024-02-23T07:13:12;13.05;;;7.00;;
57087;SDS011;42965;52.846;6.614;2024-02-23T07:15:39;11.43;;;6.70;;
57087;SDS011;42965;52.846;6.614;2024-02-23T07:18:06;14.35;;;6.30;;
57087;SDS011;42965;52.846;6.614;2024-02-23T07:20:37;15.25;;;6.47;;
57087;SDS011;42965;52.846;6.614;2024-02-23T07:23:04;10.40;;;5.88;;
57087;SDS011;42965;52.846;6.614;2024-02-23T07:25:30;10.40;;;5.50;;
57087;SDS011;42965;52.846;6.614;2024-02-23T07:27:56;11.75;;;6.05;;
57087;SDS011;42965;52.846;6.614;2024-02-23T07:30:24;14.20;;;5.85;;
57087;SDS011;42965;52.846;6.614;2024-02-23T07:32:50;7.95;;;4.90;;
57087;SDS011;42965;52.846;6.614;2024-02-23T07:35:16;9.43;;;4.80;;
57087;SDS011;42965;52.846;6.614;2024-02-23T07:37:43;9.93;;;5.22;;
57087;SDS011;42965;52.846;6.614;2024-02-23T07:40:09;8.70;;;4.78;;
57087;SDS011;42965;52.846;6.614;2024-02-23T07:42:36;8.65;;;4.07;;
57087;SDS011;42965;52.846;6.614;2024-02-23T07:45:02;12.45;;;4.35;;
57087;SDS011;42965;52.846;6.614;2024-02-23T07:47:32;9.02;;;4.20;;
57087;SDS011;42965;52.846;6.614;2024-02-23T07:49:59;13.82;;;4.38;;
57087;SDS011;42965;52.846;6.614;2024-02-23T07:52:26;11.23;;;3.63;;
57087;SDS011;42965;52.846;6.614;2024-02-23T07:54:53;7.55;;;3.03;;
57087;SDS011;42965;52.846;6.614;2024-02-23T07:57:19;9.90;;;3.58;;
57087;SDS011;42965;52.846;6.614;2024-02-23T07:59:46;11.13;;;3.05;;
57087;SDS011;42965;52.846;6.614;2024-02-23T08:02:14;7.00;;;3.03;;
57087;SDS011;42965;52.846;6.614;2024-02-23T08:04:41;8.95;;;2.65;;
57087;SDS011;42965;52.846;6.614;2024-02-23T08:07:09;8.38;;;2.85;;
57087;SDS011;42965;52.846;6.614;2024-02-23T08:09:35;10.30;;;3.05;;
57087;SDS011;42965;52.846;6.614;2024-02-23T08:12:03;6.00;;;2.40;;
57087;SDS011;42965;52.846;6.614;2024-02-23T08:14:34;9.23;;;2.72;;
57087;SDS011;42965;52.846;6.614;2024-02-23T08:17:02;9.15;;;2.90;;
57087;SDS011;42965;52.846;6.614;2024-02-23T08:19:32;7.80;;;3.00;;
57087;SDS011;42965;52.846;6.614;2024-02-23T08:21:59;6.50;;;3.38;;
57087;SDS011;42965;52.846;6.614;2024-02-23T08:24:27;9.65;;;2.70;;
57087;SDS011;42965;52.846;6.614;2024-02-23T08:26:54;8.02;;;2.38;;
57087;SDS011;42965;52.846;6.614;2024-02-23T08:29:21;9.00;;;2.70;;
57087;SDS011;42965;52.846;6.614;2024-02-23T08:31:49;10.68;;;3.28;;
57087;SDS011;42965;52.846;6.614;2024-02-23T08:34:16;10.30;;;2.72;;
57087;SDS011;42965;52.846;6.614;2024-02-23T08:36:44;6.00;;;2.22;;
57087;SDS011;42965;52.846;6.614;2024-02-23T08:39:12;6.03;;;2.47;;
57087;SDS011;42965;52.846;6.614;2024-02-23T08:41:39;7.80;;;2.35;;
57087;SDS011;42965;52.846;6.614;2024-02-23T08:44:07;8.13;;;2.20;;
57087;SDS011;42965;52.846;6.614;2024-02-23T08:46:34;6.03;;;2.30;;
57087;SDS011;42965;52.846;6.614;2024-02-23T08:49:01;7.60;;;1.98;;
57087;SDS011;42965;52.846;6.614;2024-02-23T08:51:28;6.78;;;1.85;;
57087;SDS011;42965;52.846;6.614;2024-02-23T08:53:54;6.65;;;1.75;;
57087;SDS011;42965;52.846;6.614;2024-02-23T08:56:23;5.78;;;1.80;;
57087;SDS011;42965;52.846;6.614;2024-02-23T08:58:52;4.03;;;2.00;;
57087;SDS011;42965;52.846;6.614;2024-02-23T09:01:18;7.55;;;1.80;;
57087;SDS011;42965;52.846;6.614;2024-02-23T09:03:45;6.43;;;1.70;;
57087;SDS011;42965;52.846;6.614;2024-02-23T09:06:12;5.60;;;1.80;;
57087;SDS011;42965;52.846;6.614;2024-02-23T09:08:38;8.15;;;1.42;;
57087;SDS011;42965;52.846;6.614;2024-02-23T09:11:06;7.22;;;2.08;;
57087;SDS011;42965;52.846;6.614;2024-02-23T09:13:33;7.43;;;1.50;;
57087;SDS011;42965;52.846;6.614;2024-02-23T09:16:00;4.65;;;1.85;;
57087;SDS011;42965;52.846;6.614;2024-02-23T09:18:26;7.15;;;1.80;;
57087;SDS011;42965;52.846;6.614;2024-02-23T09:20:55;5.07;;;1.50;;
57087;SDS011;42965;52.846;6.614;2024-02-23T09:23:24;5.07;;;1.70;;
57087;SDS011;42965;52.846;6.614;2024-02-23T09:25:50;10.95;;;1.83;;
57087;SDS011;42965;52.846;6.614;2024-02-23T09:28:18;9.27;;;1.90;;
57087;SDS011;42965;52.846;6.614;2024-02-23T09:30:44;6.93;;;1.90;;
57087;SDS011;42965;52.846;6.614;2024-02-23T09:33:10;5.40;;;1.73;;
57087;SDS011;42965;52.846;6.614;2024-02-23T09:35:38;10.00;;;2.40;;
57087;SDS011;42965;52.846;6.614;2024-02-23T09:38:05;4.88;;;1.40;;
57087;SDS011;42965;52.846;6.614;2024-02-23T09:40:32;9.43;;;2.10;;
57087;SDS011;42965;52.846;6.614;2024-02-23T09:43:00;8.07;;;1.83;;
57087;SDS011;42965;52.846;6.614;2024-02-23T09:45:27;5.22;;;1.38;;
57087;SDS011;42965;52.846;6.614;2024-02-23T09:47:56;5.43;;;1.60;;
57087;SDS011;42965;52.846;6.614;2024-02-23T09:50:24;7.15;;;1.88;;
57087;SDS011;42965;52.846;6.614;2024-02-23T09:52:52;6.18;;;2.20;;
57087;SDS011;42965;52.846;6.614;2024-02-23T09:55:23;6.55;;;1.73;;
57087;SDS011;42965;52.846;6.614;2024-02-23T09:57:55;5.72;;;1.63;;
57087;SDS011;42965;52.846;6.614;2024-02-23T10:00:24;6.88;;;1.90;;
57087;SDS011;42965;52.846;6.614;2024-02-23T10:02:52;6.68;;;1.38;;
57087;SDS011;42965;52.846;6.614;2024-02-23T10:05:23;5.32;;;1.33;;
57087;SDS011;42965;52.846;6.614;2024-02-23T10:07:58;7.13;;;1.50;;
57087;SDS011;42965;52.846;6.614;2024-02-23T10:10:34;6.80;;;1.35;;
57087;SDS011;42965;52.846;6.614;2024-02-23T10:13:09;7.03;;;1.55;;
57087;SDS011;42965;52.846;6.614;2024-02-23T10:15:36;7.25;;;2.10;;
57087;SDS011;42965;52.846;6.614;2024-02-23T10:18:05;5.03;;;1.27;;
57087;SDS011;42965;52.846;6.614;2024-02-23T10:20:32;7.20;;;1.65;;
57087;SDS011;42965;52.846;6.614;2024-02-23T10:23:02;8.02;;;1.73;;
57087;SDS011;42965;52.846;6.614;2024-02-23T10:25:29;6.55;;;1.58;;
57087;SDS011;42965;52.846;6.614;2024-02-23T10:27:58;8.57;;;2.03;;
57087;SDS011;42965;52.846;6.614;2024-02-23T10:30:26;6.53;;;1.67;;
57087;SDS011;42965;52.846;6.614;2024-02-23T10:32:55;7.70;;;1.63;;
57087;SDS011;42965;52.846;6.614;2024-02-23T10:35:23;10.18;;;1.67;;
57087;SDS011;42965;52.846;6.614;2024-02-23T10:37:52;6.28;;;1.50;;
57087;SDS011;42965;52.846;6.614;2024-02-23T10:40:21;7.00;;;1.55;;
57087;SDS011;42965;52.846;6.614;2024-02-23T10:42:52;7.18;;;1.83;;
57087;SDS011;42965;52.846;6.614;2024-02-23T10:45:23;10.70;;;2.58;;
57087;SDS011;42965;52.846;6.614;2024-02-23T10:47:51;5.25;;;1.33;;
57087;SDS011;42965;52.846;6.614;2024-02-23T10:50:18;5.65;;;1.40;;
57087;SDS011;42965;52.846;6.614;2024-02-23T10:52:45;9.95;;;1.80;;
57087;SDS011;42965;52.846;6.614;2024-02-23T10:55:13;6.25;;;1.90;;
57087;SDS011;42965;52.846;6.614;2024-02-23T10:57:40;7.25;;;1.55;;
57087;SDS011;42965;52.846;6.614;2024-02-23T11:00:07;7.13;;;1.77;;
57087;SDS011;42965;52.846;6.614;2024-02-23T11:02:38;6.68;;;1.48;;
57087;SDS011;42965;52.846;6.614;2024-02-23T11:05:09;7.85;;;2.28;;
57087;SDS011;42965;52.846;6.614;2024-02-23T11:07:38;4.82;;;1.50;;
57087;SDS011;42965;52.846;6.614;2024-02-23T11:10:07;6.57;;;1.40;;
57087;SDS011;42965;52.846;6.614;2024-02-23T11:12:37;4.97;;;1.63;;
57087;SDS011;42965;52.846;6.614;2024-02-23T11:15:07;5.53;;;1.50;;
57087;SDS011;42965;52.846;6.614;2024-02-23T11:17:35;9.93;;;1.63;;
57087;SDS011;42965;52.846;6.614;2024-02-23T11:20:07;6.13;;;1.95;;
57087;SDS011;42965;52.846;6.614;2024-02-23T11:22:35;7.97;;;1.75;;
57087;SDS011;42965;52.846;6.614;2024-02-23T11:25:03;6.18;;;1.80;;
57087;SDS011;42965;52.846;6.614;2024-02-23T11:27:33;7.60;;;2.03;;
57087;SDS011;42965;52.846;6.614;2024-02-23T11:32:43;5.43;;;1.33;;
57087;SDS011;42965;52.846;6.614;2024-02-23T11:35:16;8.05;;;2.03;;
57087;SDS011;42965;52.846;6.614;2024-02-23T11:37:49;6.68;;;1.63;;
57087;SDS011;42965;52.846;6.614;2024-02-23T11:40:31;9.20;;;1.75;;
57087;SDS011;42965;52.846;6.614;2024-02-23T11:43:04;9.05;;;2.10;;
57087;SDS011;42965;52.846;6.614;2024-02-23T11:45:32;7.88;;;1.52;;
57087;SDS011;42965;52.846;6.614;2024-02-23T11:48:00;5.45;;;1.67;;
57087;SDS011;42965;52.846;6.614;2024-02-23T11:50:28;6.70;;;1.67;;
57087;SDS011;42965;52.846;6.614;2024-02-23T11:52:55;7.70;;;1.88;;
57087;SDS011;42965;52.846;6.614;2024-02-23T11:55:24;12.93;;;2.10;;
57087;SDS011;42965;52.846;6.614;2024-02-23T11:57:51;5.70;;;1.58;;
57087;SDS011;42965;52.846;6.614;2024-02-23T12:00:19;6.05;;;1.50;;
57087;SDS011;42965;52.846;6.614;2024-02-23T12:02:46;5.90;;;1.50;;
57087;SDS011;42965;52.846;6.614;2024-02-23T12:05:16;7.18;;;1.45;;
57087;SDS011;42965;52.846;6.614;2024-02-23T12:07:45;5.72;;;1.80;;
57087;SDS011;42965;52.846;6.614;2024-02-23T12:10:15;4.35;;;1.73;;
57087;SDS011;42965;52.846;6.614;2024-02-23T12:12:43;6.50;;;1.65;;
57087;SDS011;42965;52.846;6.614;2024-02-23T12:15:11;6.85;;;1.60;;
57087;SDS011;42965;52.846;6.614;2024-02-23T12:17:46;2.85;;;1.55;;
57087;SDS011;42965;52.846;6.614;2024-02-23T12:20:14;6.32;;;1.67;;
57087;SDS011;42965;52.846;6.614;2024-02-23T12:22:41;5.70;;;1.60;;
57087;SDS011;42965;52.846;6.614;2024-02-23T12:25:10;5.50;;;1.83;;
57087;SDS011;42965;52.846;6.614;2024-02-23T12:27:39;5.05;;;1.33;;
57087;SDS011;42965;52.846;6.614;2024-02-23T12:30:12;4.93;;;1.58;;
57087;SDS011;42965;52.846;6.614;2024-02-23T12:32:41;5.43;;;1.67;;
57087;SDS011;42965;52.846;6.614;2024-02-23T12:35:12;5.00;;;1.40;;
57087;SDS011;42965;52.846;6.614;2024-02-23T12:37:40;7.88;;;1.75;;
57087;SDS011;42965;52.846;6.614;2024-02-23T12:40:09;8.02;;;1.88;;
57087;SDS011;42965;52.846;6.614;2024-02-23T12:42:38;10.38;;;2.38;;
57087;SDS011;42965;52.846;6.614;2024-02-23T12:45:05;6.55;;;1.85;;
57087;SDS011;42965;52.846;6.614;2024-02-23T12:47:33;4.95;;;1.73;;
57087;SDS011;42965;52.846;6.614;2024-02-23T12:50:05;8.30;;;1.88;;
57087;SDS011;42965;52.846;6.614;2024-02-23T12:52:34;4.65;;;1.67;;
57087;SDS011;42965;52.846;6.614;2024-02-23T12:55:00;5.70;;;1.80;;
57087;SDS011;42965;52.846;6.614;2024-02-23T12:57:27;5.88;;;1.65;;
57087;SDS011;42965;52.846;6.614;2024-02-23T12:59:53;6.80;;;2.20;;
57087;SDS011;42965;52.846;6.614;2024-02-23T13:02:20;5.72;;;1.60;;
57087;SDS011;42965;52.846;6.614;2024-02-23T13:04:48;8.95;;;1.90;;
57087;SDS011;42965;52.846;6.614;2024-02-23T13:07:15;7.13;;;1.63;;
57087;SDS011;42965;52.846;6.614;2024-02-23T13:09:42;9.70;;;2.13;;
57087;SDS011;42965;52.846;6.614;2024-02-23T13:12:09;8.20;;;2.03;;
57087;SDS011;42965;52.846;6.614;2024-02-23T13:14:36;6.22;;;1.67;;
57087;SDS011;42965;52.846;6.614;2024-02-23T13:17:02;7.15;;;1.88;;
57087;SDS011;42965;52.846;6.614;2024-02-23T13:19:32;4.63;;;1.50;;
57087;SDS011;42965;52.846;6.614;2024-02-23T13:22:09;5.72;;;2.10;;
57087;SDS011;42965;52.846;6.614;2024-02-23T13:24:36;7.05;;;1.67;;
57087;SDS011;42965;52.846;6.614;2024-02-23T13:27:05;4.80;;;1.65;;
57087;SDS011;42965;52.846;6.614;2024-02-23T13:29:32;7.15;;;1.38;;
57087;SDS011;42965;52.846;6.614;2024-02-23T13:31:58;5.53;;;2.20;;
57087;SDS011;42965;52.846;6.614;2024-02-23T13:34:25;3.45;;;1.35;;
57087;SDS011;42965;52.846;6.614;2024-02-23T13:36:51;6.05;;;1.67;;
57087;SDS011;42965;52.846;6.614;2024-02-23T13:39:18;6.18;;;1.42;;
57087;SDS011;42965;52.846;6.614;2024-02-23T13:41:45;2.83;;;1.30;;
57087;SDS011;42965;52.846;6.614;2024-02-23T13:44:11;6.07;;;1.83;;
57087;SDS011;42965;52.846;6.614;2024-02-23T13:46:38;6.00;;;1.52;;
57087;SDS011;42965;52.846;6.614;2024-02-23T13:49:06;5.22;;;2.13;;
57087;SDS011;42965;52.846;6.614;2024-02-23T13:51:35;5.80;;;1.60;;
57087;SDS011;42965;52.846;6.614;2024-02-23T13:54:03;6.78;;;1.50;;
57087;SDS011;42965;52.846;6.614;2024-02-23T13:56:34;8.88;;;1.77;;
57087;SDS011;42965;52.846;6.614;2024-02-23T13:59:04;6.28;;;1.63;;
57087;SDS011;42965;52.846;6.614;2024-02-23T14:01:32;4.35;;;2.00;;
57087;SDS011;42965;52.846;6.614;2024-02-23T14:03:59;6.38;;;1.67;;
57087;SDS011;42965;52.846;6.614;2024-02-23T14:06:34;5.00;;;1.63;;
57087;SDS011;42965;52.846;6.614;2024-02-23T14:09:21;6.60;;;1.63;;
57087;SDS011;42965;52.846;6.614;2024-02-23T14:12:08;5.10;;;1.35;;
57087;SDS011;42965;52.846;6.614;2024-02-23T14:14:35;6.15;;;1.63;;
57087;SDS011;42965;52.846;6.614;2024-02-23T14:17:22;4.53;;;1.63;;
57087;SDS011;42965;52.846;6.614;2024-02-23T14:20:08;4.38;;;1.75;;
57087;SDS011;42965;52.846;6.614;2024-02-23T14:22:35;6.18;;;1.88;;
57087;SDS011;42965;52.846;6.614;2024-02-23T14:25:01;4.72;;;1.70;;
57087;SDS011;42965;52.846;6.614;2024-02-23T14:27:27;3.58;;;1.60;;
57087;SDS011;42965;52.846;6.614;2024-02-23T14:29:54;8.48;;;1.85;;
57087;SDS011;42965;52.846;6.614;2024-02-23T14:32:20;6.88;;;2.08;;
57087;SDS011;42965;52.846;6.614;2024-02-23T14:35:07;5.75;;;1.70;;
57087;SDS011;42965;52.846;6.614;2024-02-23T14:37:35;5.43;;;1.70;;
57087;SDS011;42965;52.846;6.614;2024-02-23T14:40:01;8.55;;;2.10;;
57087;SDS011;42965;52.846;6.614;2024-02-23T14:42:48;6.47;;;1.60;;
57087;SDS011;42965;52.846;6.614;2024-02-23T14:45:14;6.63;;;1.80;;
57087;SDS011;42965;52.846;6.614;2024-02-23T14:47:45;5.03;;;1.70;;
57087;SDS011;42965;52.846;6.614;2024-02-23T14:50:12;4.63;;;1.88;;
57087;SDS011;42965;52.846;6.614;2024-02-23T14:52:38;6.55;;;1.80;;